createdAt,value
2019-05-30T00:01:05.714Z,4.35
2019-05-30T00:03:34.119Z,4.14
2019-05-30T00:06:02.550Z,4.14
2019-05-30T00:08:30.967Z,3.97
2019-05-30T00:11:00.532Z,3.97
2019-05-30T00:13:29.082Z,3.92
2019-05-30T00:15:58.648Z,3.89
2019-05-30T00:18:27.208Z,3.89
2019-05-30T00:20:56.675Z,3.89
2019-05-30T00:23:25.284Z,3.97
2019-05-30T00:25:55.135Z,4.10
2019-05-30T00:28:23.705Z,4.10
2019-05-30T00:30:52.150Z,4.07
2019-05-30T00:33:20.556Z,4.02
2019-05-30T00:35:48.965Z,3.98
2019-05-30T00:38:17.391Z,3.98
2019-05-30T00:40:45.797Z,4.01
2019-05-30T00:43:14.231Z,4.02
2019-05-30T00:45:42.639Z,4.02
2019-05-30T00:48:11.067Z,4.01
2019-05-30T00:50:39.474Z,3.96
2019-05-30T00:53:07.905Z,3.90
2019-05-30T00:55:36.315Z,3.79
2019-05-30T00:58:04.891Z,3.79
2019-05-30T01:00:43.177Z,3.77
2019-05-30T01:03:06.473Z,3.77
2019-05-30T01:05:33.697Z,3.73
2019-05-30T01:08:03.318Z,3.76
2019-05-30T01:10:31.788Z,3.76
2019-05-30T01:13:01.357Z,3.76
2019-05-30T01:15:29.983Z,3.76
2019-05-30T01:17:59.063Z,3.76
2019-05-30T01:20:27.573Z,3.70
2019-05-30T01:22:57.004Z,3.70
2019-05-30T01:25:25.485Z,3.70
2019-05-30T01:27:53.923Z,3.69
2019-05-30T01:30:22.406Z,3.69
2019-05-30T01:32:50.834Z,3.71
2019-05-30T01:35:19.314Z,3.75
2019-05-30T01:37:47.743Z,3.73
2019-05-30T01:40:16.329Z,3.65
2019-05-30T01:42:44.763Z,3.51
2019-05-30T01:45:13.226Z,3.51
2019-05-30T01:47:41.673Z,3.45
2019-05-30T01:50:10.799Z,3.43
2019-05-30T01:52:39.349Z,3.45
2019-05-30T01:55:09.144Z,3.45
2019-05-30T01:57:37.941Z,3.49
2019-05-30T02:00:21.287Z,3.52
2019-05-30T02:02:47.203Z,3.52
2019-05-30T02:05:15.974Z,3.51
2019-05-30T02:07:44.381Z,3.51
2019-05-30T02:10:15.442Z,3.56
2019-05-30T02:12:43.848Z,3.61
2019-05-30T02:15:12.345Z,3.56
2019-05-30T02:17:40.819Z,3.51
2019-05-30T02:20:10.145Z,3.45
2019-05-30T02:22:38.677Z,3.50
2019-05-30T02:25:08.258Z,3.36
2019-05-30T02:27:36.737Z,3.36
2019-05-30T02:30:10.771Z,3.21
2019-05-30T02:32:37.424Z,3.06
2019-05-30T02:35:07.872Z,3.00
2019-05-30T02:37:36.922Z,3.00
2019-05-30T02:40:09.949Z,3.00
2019-05-30T02:42:36.886Z,3.06
2019-05-30T02:45:07.981Z,3.16
2019-05-30T02:47:37.364Z,3.18
2019-05-30T02:50:11.487Z,3.23
2019-05-30T02:52:40.223Z,3.29
2019-05-30T02:55:10.945Z,3.30
2019-05-30T02:57:38.949Z,3.29
2019-05-30T03:00:12.446Z,3.20
2019-05-30T03:02:38.219Z,3.15
2019-05-30T03:05:10.914Z,3.17
2019-05-30T03:07:37.191Z,3.17
2019-05-30T03:10:09.415Z,3.19
2019-05-30T03:12:37.431Z,3.28
2019-05-30T03:15:09.251Z,3.28
2019-05-30T03:17:37.133Z,3.41
2019-05-30T03:20:18.012Z,3.76
2019-05-30T03:22:36.569Z,4.28
2019-05-30T03:25:07.443Z,4.28
2019-05-30T03:27:35.870Z,4.47
2019-05-30T03:30:13.451Z,4.58
2019-05-30T03:33:04.117Z,4.66
2019-05-30T03:35:15.244Z,4.73
2019-05-30T03:37:37.642Z,4.90
2019-05-30T03:40:07.185Z,4.99
2019-05-30T03:42:35.689Z,5.28
2019-05-30T03:45:08.403Z,5.28
2019-05-30T03:47:38.367Z,5.46
2019-05-30T03:50:09.049Z,5.85
2019-05-30T03:52:37.448Z,5.85
2019-05-30T03:55:09.240Z,6.26
2019-05-30T03:57:43.349Z,6.26
2019-05-30T04:00:20.767Z,6.42
2019-05-30T04:02:58.320Z,6.71
2019-05-30T04:05:37.740Z,6.71
2019-05-30T04:08:07.234Z,6.83
2019-05-30T04:10:39.192Z,6.97
2019-05-30T04:13:18.768Z,6.97
2019-05-30T04:15:46.704Z,7.20
2019-05-30T04:18:16.477Z,7.37
2019-05-30T04:20:45.127Z,7.37
2019-05-30T04:23:14.819Z,7.47
2019-05-30T04:25:43.916Z,7.68
2019-05-30T04:28:14.012Z,7.80
2019-05-30T04:30:42.528Z,7.98
2019-05-30T04:33:19.381Z,8.13
2019-05-30T04:35:41.086Z,8.27
2019-05-30T04:38:10.468Z,8.46
2019-05-30T04:40:38.949Z,8.63
2019-05-30T04:43:09.023Z,8.80
2019-05-30T04:45:37.536Z,8.94
2019-05-30T04:48:06.030Z,9.11
2019-05-30T04:50:34.440Z,9.29
2019-05-30T04:53:02.893Z,9.46
2019-05-30T04:55:31.279Z,9.62
2019-05-30T04:57:59.712Z,9.79
2019-05-30T05:00:28.133Z,9.94
2019-05-30T05:02:56.558Z,10.04
2019-05-30T05:05:27.040Z,10.21
2019-05-30T05:07:55.136Z,10.33
2019-05-30T05:10:23.539Z,10.49
2019-05-30T05:12:51.967Z,10.63
2019-05-30T05:15:20.749Z,10.93
2019-05-30T05:17:49.349Z,11.19
2019-05-30T05:20:19.363Z,11.23
2019-05-30T05:22:47.910Z,11.34
2019-05-30T05:25:17.441Z,11.45
2019-05-30T05:27:46.017Z,11.76
2019-05-30T05:30:16.016Z,12.31
2019-05-30T05:32:44.564Z,12.83
2019-05-30T05:35:13.115Z,13.60
2019-05-30T05:37:41.515Z,14.18
2019-05-30T05:40:10.213Z,15.04
2019-05-30T05:42:38.626Z,15.45
2019-05-30T05:45:07.792Z,15.71
2019-05-30T05:47:36.202Z,15.87
2019-05-30T05:50:06.178Z,15.88
2019-05-30T05:52:34.576Z,16.08
2019-05-30T05:55:03.152Z,16.06
2019-05-30T05:57:31.588Z,15.70
2019-05-30T06:00:00.067Z,15.07
2019-05-30T06:02:28.474Z,14.54
2019-05-30T06:04:56.906Z,14.04
2019-05-30T06:07:25.399Z,13.97
2019-05-30T06:09:53.834Z,14.02
2019-05-30T06:12:22.236Z,14.09
2019-05-30T06:14:50.670Z,14.15
2019-05-30T06:17:19.087Z,14.31
2019-05-30T06:19:47.524Z,14.56
2019-05-30T06:22:15.924Z,14.87
2019-05-30T06:24:44.358Z,14.97
2019-05-30T06:27:12.764Z,15.28
2019-05-30T06:29:41.196Z,15.57
2019-05-30T06:32:09.607Z,15.47
2019-05-30T06:34:39.620Z,15.54
2019-05-30T06:37:11.801Z,15.72
2019-05-30T06:39:38.335Z,15.95
2019-05-30T06:42:06.723Z,16.04
2019-05-30T06:44:35.154Z,16.10
2019-05-30T06:47:03.556Z,16.17
2019-05-30T06:49:31.993Z,16.32
2019-05-30T06:52:00.390Z,16.42
2019-05-30T06:54:29.504Z,16.30
2019-05-30T06:56:58.103Z,16.38
2019-05-30T06:59:27.651Z,16.52
2019-05-30T07:01:56.190Z,16.57
2019-05-30T07:04:25.501Z,16.51
2019-05-30T07:06:54.981Z,16.63
2019-05-30T07:09:24.872Z,16.63
2019-05-30T07:11:53.446Z,16.65
2019-05-30T07:14:23.018Z,16.73
2019-05-30T07:16:51.531Z,16.83
2019-05-30T07:19:19.939Z,17.03
2019-05-30T07:21:48.372Z,17.09
2019-05-30T07:24:16.776Z,17.19
2019-05-30T07:26:45.210Z,17.28
2019-05-30T07:29:13.618Z,17.47
2019-05-30T07:31:42.057Z,17.66
2019-05-30T07:34:10.462Z,17.89
2019-05-30T07:36:38.888Z,18.05
2019-05-30T07:39:08.535Z,18.21
2019-05-30T07:41:37.332Z,18.19
2019-05-30T07:44:05.800Z,18.18
2019-05-30T07:46:35.127Z,18.13
2019-05-30T07:49:03.788Z,18.15
2019-05-30T07:51:32.684Z,18.16
2019-05-30T07:54:01.199Z,18.27
2019-05-30T07:56:29.634Z,18.27
2019-05-30T07:58:58.039Z,18.37
2019-05-30T08:01:26.463Z,18.40
2019-05-30T08:03:54.867Z,18.44
2019-05-30T08:06:23.303Z,18.46
2019-05-30T08:08:51.711Z,18.68
2019-05-30T08:11:20.141Z,18.74
2019-05-30T08:13:48.554Z,18.88
2019-05-30T08:16:16.958Z,18.97
2019-05-30T08:18:45.387Z,18.97
2019-05-30T08:21:13.789Z,19.00
2019-05-30T08:23:42.294Z,19.01
2019-05-30T08:26:10.698Z,18.88
2019-05-30T08:28:42.473Z,18.92
2019-05-30T08:31:09.260Z,18.86
2019-05-30T08:33:37.723Z,18.97
2019-05-30T08:36:06.153Z,19.30
2019-05-30T08:38:35.319Z,19.46
2019-05-30T08:41:03.987Z,19.42
2019-05-30T08:43:33.399Z,19.22
2019-05-30T08:46:01.899Z,19.18
2019-05-30T08:48:30.332Z,19.61
2019-05-30T08:50:58.780Z,20.03
2019-05-30T08:53:27.273Z,20.43
2019-05-30T08:55:55.809Z,20.68
2019-05-30T08:58:24.277Z,20.81
2019-05-30T09:00:52.684Z,20.78
2019-05-30T09:03:21.117Z,20.40
2019-05-30T09:06:02.686Z,20.58
2019-05-30T09:08:20.542Z,20.89
2019-05-30T09:10:48.951Z,21.15
2019-05-30T09:13:17.399Z,21.30
2019-05-30T09:15:46.979Z,21.32
2019-05-30T09:18:15.670Z,21.38
2019-05-30T09:20:45.202Z,21.49
2019-05-30T09:23:13.785Z,21.65
2019-05-30T09:25:42.193Z,21.94
2019-05-30T09:28:10.618Z,22.10
2019-05-30T09:30:39.890Z,22.21
2019-05-30T09:33:09.248Z,22.13
2019-05-30T09:35:38.496Z,22.06
2019-05-30T09:38:07.951Z,21.82
2019-05-30T09:40:36.361Z,21.59
2019-05-30T09:43:04.927Z,21.59
2019-05-30T09:45:34.168Z,21.73
2019-05-30T09:48:02.568Z,21.78
2019-05-30T09:50:31.002Z,21.60
2019-05-30T09:52:59.412Z,21.39
2019-05-30T09:55:27.912Z,21.36
2019-05-30T09:57:56.323Z,21.19
2019-05-30T10:00:26.441Z,21.13
2019-05-30T10:02:54.857Z,21.13
2019-05-30T10:05:24.640Z,21.25
2019-05-30T10:07:53.427Z,21.36
2019-05-30T10:10:22.692Z,21.25
2019-05-30T10:12:52.493Z,21.10
2019-05-30T10:15:21.444Z,20.99
2019-05-30T10:17:52.331Z,20.76
2019-05-30T10:20:20.243Z,20.46
2019-05-30T10:22:50.496Z,20.22
2019-05-30T10:25:18.879Z,20.12
2019-05-30T10:27:48.867Z,19.82
2019-05-30T10:30:17.979Z,19.57
2019-05-30T10:32:48.186Z,19.51
2019-05-30T10:35:16.830Z,19.54
2019-05-30T10:37:46.750Z,19.47
2019-05-30T10:40:16.995Z,19.47
2019-05-30T10:42:47.296Z,19.42
2019-05-30T10:45:18.726Z,19.50
2019-05-30T10:47:47.504Z,19.65
2019-05-30T10:50:17.179Z,19.82
2019-05-30T10:52:45.590Z,19.80
2019-05-30T10:55:14.979Z,19.79
2019-05-30T10:57:43.455Z,19.92
2019-05-30T11:00:14.369Z,20.01
2019-05-30T11:02:42.864Z,20.11
2019-05-30T11:05:12.538Z,20.21
2019-05-30T11:08:03.443Z,20.41
2019-05-30T11:10:37.848Z,20.58
2019-05-30T11:13:08.336Z,20.66
2019-05-30T11:15:36.790Z,20.59
2019-05-30T11:18:05.491Z,20.27
2019-05-30T11:20:33.892Z,20.07
2019-05-30T11:23:02.326Z,19.84
2019-05-30T11:25:31.770Z,19.69
2019-05-30T11:28:00.200Z,19.50
2019-05-30T11:30:29.339Z,19.42
2019-05-30T11:32:59.124Z,19.34
2019-05-30T11:35:27.962Z,19.29
2019-05-30T11:37:57.258Z,19.13
2019-05-30T11:40:25.754Z,19.00
2019-05-30T11:42:55.351Z,18.81
2019-05-30T11:45:24.315Z,18.63
2019-05-30T11:47:53.791Z,18.51
2019-05-30T11:50:22.569Z,18.40
2019-05-30T11:52:51.690Z,18.36
2019-05-30T11:55:20.343Z,18.37
2019-05-30T11:57:49.869Z,18.56
2019-05-30T12:00:18.742Z,18.79
2019-05-30T12:02:47.165Z,18.96
2019-05-30T12:05:16.005Z,18.92
2019-05-30T12:07:44.504Z,18.91
2019-05-30T12:10:13.247Z,18.90
2019-05-30T12:12:41.672Z,18.80
2019-05-30T12:15:10.607Z,18.73
2019-05-30T12:17:39.040Z,18.51
2019-05-30T12:20:09.083Z,18.36
2019-05-30T12:22:37.517Z,18.21
2019-05-30T12:25:07.566Z,18.08
2019-05-30T12:27:36.072Z,18.04
2019-05-30T12:30:06.788Z,18.07
2019-05-30T12:32:35.196Z,18.17
2019-05-30T12:35:04.912Z,18.35
2019-05-30T12:37:33.320Z,18.46
2019-05-30T12:40:03.088Z,18.51
2019-05-30T12:42:31.637Z,18.49
2019-05-30T12:45:05.462Z,18.58
2019-05-30T12:47:30.203Z,18.65
2019-05-30T12:49:59.323Z,18.67
2019-05-30T12:52:27.811Z,18.72
2019-05-30T12:54:56.419Z,18.81
2019-05-30T12:57:24.827Z,18.91
2019-05-30T12:59:54.631Z,18.91
2019-05-30T13:02:23.140Z,18.89
2019-05-30T13:04:51.570Z,18.78
2019-05-30T13:07:19.972Z,18.69
2019-05-30T13:09:48.406Z,18.80
2019-05-30T13:12:16.817Z,18.78
2019-05-30T13:14:45.242Z,18.73
2019-05-30T13:17:13.650Z,18.67
2019-05-30T13:19:42.160Z,18.52
2019-05-30T13:22:10.555Z,18.35
2019-05-30T13:24:38.985Z,18.27
2019-05-30T13:27:07.409Z,18.23
2019-05-30T13:29:35.834Z,18.25
2019-05-30T13:32:04.625Z,18.38
2019-05-30T13:34:33.158Z,18.52
2019-05-30T13:37:02.907Z,18.86
2019-05-30T13:39:31.539Z,19.13
2019-05-30T13:41:59.943Z,19.42
2019-05-30T13:44:28.375Z,19.61
2019-05-30T13:46:56.778Z,19.70
2019-05-30T13:49:25.208Z,19.67
2019-05-30T13:51:53.615Z,19.45
2019-05-30T13:54:22.041Z,19.19
2019-05-30T13:56:50.449Z,18.97
2019-05-30T13:59:18.881Z,18.76
2019-05-30T14:01:47.285Z,18.63
2019-05-30T14:04:15.738Z,18.59
2019-05-30T14:06:44.145Z,18.59
2019-05-30T14:09:12.554Z,18.61
2019-05-30T14:11:40.986Z,18.75
2019-05-30T14:14:09.390Z,18.91
2019-05-30T14:16:37.823Z,18.92
2019-05-30T14:19:10.830Z,18.93
2019-05-30T14:21:36.389Z,18.90
2019-05-30T14:24:05.344Z,18.89
2019-05-30T14:26:33.869Z,18.92
2019-05-30T14:29:03.631Z,19.00
2019-05-30T14:31:32.355Z,19.09
2019-05-30T14:34:01.982Z,19.07
2019-05-30T14:36:30.572Z,18.87
2019-05-30T14:38:59.250Z,18.79
2019-05-30T14:41:27.689Z,18.76
2019-05-30T14:43:56.108Z,18.56
2019-05-30T14:46:24.529Z,18.44
2019-05-30T14:48:52.938Z,18.25
2019-05-30T14:51:21.383Z,18.19
2019-05-30T14:53:49.798Z,18.22
2019-05-30T14:56:18.231Z,18.29
2019-05-30T14:58:46.712Z,18.31
2019-05-30T15:01:15.149Z,18.42
2019-05-30T15:03:43.559Z,18.58
2019-05-30T15:06:15.341Z,18.62
2019-05-30T15:08:42.321Z,18.60
2019-05-30T15:11:11.746Z,18.45
2019-05-30T15:13:40.253Z,18.45
2019-05-30T15:16:08.847Z,18.38
2019-05-30T15:18:37.283Z,18.40
2019-05-30T15:21:06.277Z,18.52
2019-05-30T15:23:34.819Z,18.72
2019-05-30T15:26:03.567Z,18.86
2019-05-30T15:28:32.002Z,18.87
2019-05-30T15:31:00.414Z,18.87
2019-05-30T15:33:28.846Z,18.86
2019-05-30T15:35:57.254Z,18.77
2019-05-30T15:38:25.702Z,18.70
2019-05-30T15:40:54.106Z,18.77
2019-05-30T15:43:22.537Z,18.89
2019-05-30T15:45:50.948Z,18.89
2019-05-30T15:48:19.390Z,18.82
2019-05-30T15:50:47.806Z,18.78
2019-05-30T15:53:17.265Z,18.71
2019-05-30T15:55:45.904Z,18.69
2019-05-30T15:58:15.617Z,18.72
2019-05-30T16:00:44.238Z,18.78
2019-05-30T16:03:12.675Z,18.76
2019-05-30T16:05:41.085Z,18.77
2019-05-30T16:08:10.656Z,18.84
2019-05-30T16:10:39.108Z,18.98
2019-05-30T16:13:07.547Z,19.17
2019-05-30T16:15:35.953Z,19.32
2019-05-30T16:18:04.530Z,19.30
2019-05-30T16:20:32.930Z,19.15
2019-05-30T16:23:01.369Z,19.01
2019-05-30T16:25:29.772Z,18.87
2019-05-30T16:27:58.207Z,18.76
2019-05-30T16:30:27.104Z,18.67
2019-05-30T16:32:55.700Z,18.59
2019-05-30T16:35:24.106Z,18.52
2019-05-30T16:37:52.539Z,18.44
2019-05-30T16:40:22.320Z,18.38
2019-05-30T16:42:50.906Z,18.30
2019-05-30T16:45:24.629Z,18.24
2019-05-30T16:47:50.234Z,18.26
2019-05-30T16:50:22.761Z,18.30
2019-05-30T16:52:51.337Z,18.37
2019-05-30T16:55:19.845Z,18.36
2019-05-30T16:57:48.250Z,18.34
2019-05-30T17:00:17.656Z,18.30
2019-05-30T17:02:46.142Z,18.26
2019-05-30T17:05:15.857Z,18.21
2019-05-30T17:07:44.327Z,18.19
2019-05-30T17:10:23.393Z,18.14
2019-05-30T17:12:43.927Z,18.10
2019-05-30T17:15:13.525Z,18.02
2019-05-30T17:17:41.940Z,17.99
2019-05-30T17:20:12.813Z,17.98
2019-05-30T17:22:41.236Z,17.98
2019-05-30T17:25:11.605Z,17.96
2019-05-30T17:27:40.012Z,17.91
2019-05-30T17:30:10.747Z,17.87
2019-05-30T17:32:39.165Z,17.83
2019-05-30T17:35:08.135Z,17.80
2019-05-30T17:37:36.551Z,17.78
2019-05-30T17:40:06.995Z,17.74
2019-05-30T17:42:35.566Z,17.71
2019-05-30T17:45:06.587Z,17.70
2019-05-30T17:47:34.985Z,17.71
2019-05-30T17:50:04.864Z,17.71
2019-05-30T17:52:33.269Z,17.73
2019-05-30T17:55:01.703Z,17.75
2019-05-30T17:57:30.302Z,17.81
2019-05-30T17:59:58.760Z,17.87
2019-05-30T18:02:28.489Z,17.94
2019-05-30T18:04:57.090Z,17.99
2019-05-30T18:07:25.517Z,18.02
2019-05-30T18:09:55.306Z,18.02
2019-05-30T18:12:25.097Z,18.04
2019-05-30T18:14:53.626Z,18.02
2019-05-30T18:17:23.077Z,18.00
2019-05-30T18:19:51.734Z,18.00
2019-05-30T18:22:21.438Z,17.99
2019-05-30T18:24:50.038Z,17.95
2019-05-30T18:27:18.471Z,17.92
2019-05-30T18:29:46.889Z,17.88
2019-05-30T18:32:15.386Z,17.78
2019-05-30T18:34:43.797Z,17.73
2019-05-30T18:37:12.245Z,17.67
2019-05-30T18:39:40.650Z,17.62
2019-05-30T18:42:09.154Z,17.59
2019-05-30T18:44:37.564Z,17.56
2019-05-30T18:47:05.994Z,17.55
2019-05-30T18:49:34.406Z,17.54
2019-05-30T18:52:02.845Z,17.48
2019-05-30T18:54:31.265Z,17.43
2019-05-30T18:56:59.690Z,17.40
2019-05-30T18:59:29.025Z,17.37
2019-05-30T19:01:57.508Z,17.34
2019-05-30T19:04:25.931Z,17.29
2019-05-30T19:06:54.346Z,17.26
2019-05-30T19:09:22.762Z,17.26
2019-05-30T19:11:51.194Z,17.25
2019-05-30T19:14:19.606Z,17.21
2019-05-30T19:16:48.035Z,17.16
2019-05-30T19:19:16.444Z,17.13
2019-05-30T19:21:44.887Z,17.11
2019-05-30T19:24:13.320Z,17.09
2019-05-30T19:26:41.729Z,17.08
2019-05-30T19:29:10.171Z,17.07
2019-05-30T19:31:38.588Z,17.07
2019-05-30T19:34:07.023Z,17.07
2019-05-30T19:36:35.428Z,17.07
2019-05-30T19:39:05.328Z,17.06
2019-05-30T19:41:45.326Z,17.04
2019-05-30T19:44:04.240Z,17.03
2019-05-30T19:46:32.648Z,17.01
2019-05-30T19:49:01.086Z,17.00
2019-05-30T19:51:31.352Z,17.00
2019-05-30T19:53:59.647Z,16.96
2019-05-30T19:56:29.114Z,16.93
2019-05-30T19:58:57.676Z,16.91
2019-05-30T20:01:26.087Z,16.88
2019-05-30T20:03:54.515Z,16.86
2019-05-30T20:06:24.818Z,16.82
2019-05-30T20:08:55.853Z,16.80
2019-05-30T20:11:23.223Z,16.78
2019-05-30T20:13:51.664Z,16.76
2019-05-30T20:16:20.087Z,16.75
2019-05-30T20:18:48.527Z,16.73
2019-05-30T20:21:16.937Z,16.71
2019-05-30T20:23:52.443Z,16.70
2019-05-30T20:26:15.519Z,16.69
2019-05-30T20:28:43.953Z,16.70
2019-05-30T20:31:12.369Z,16.67
2019-05-30T20:33:40.814Z,16.66
2019-05-30T20:36:09.225Z,16.66
2019-05-30T20:38:38.651Z,16.67
2019-05-30T20:41:07.153Z,16.63
2019-05-30T20:43:36.883Z,16.67
2019-05-30T20:46:05.553Z,16.64
2019-05-30T20:48:34.962Z,16.63
2019-05-30T20:51:03.395Z,16.63
2019-05-30T20:53:31.831Z,16.62
2019-05-30T20:56:00.247Z,16.61
2019-05-30T20:58:28.681Z,16.62
2019-05-30T21:00:57.102Z,16.62
2019-05-30T21:03:25.510Z,16.60
2019-05-30T21:05:54.313Z,16.59
2019-05-30T21:08:22.796Z,16.61
2019-05-30T21:10:51.911Z,16.59
2019-05-30T21:13:20.394Z,16.58
2019-05-30T21:15:49.198Z,16.60
2019-05-30T21:18:19.549Z,16.57
2019-05-30T21:20:48.071Z,16.54
2019-05-30T21:23:16.480Z,16.50
2019-05-30T21:25:45.233Z,16.51
2019-05-30T21:28:13.726Z,16.50
2019-05-30T21:30:43.322Z,16.49
2019-05-30T21:33:11.951Z,16.50
2019-05-30T21:35:41.689Z,16.49
2019-05-30T21:38:10.365Z,16.49
2019-05-30T21:40:39.202Z,16.46
2019-05-30T21:43:08.794Z,16.46
2019-05-30T21:45:38.406Z,16.44
2019-05-30T21:48:07.030Z,16.45
2019-05-30T21:50:35.481Z,16.44
2019-05-30T21:53:04.181Z,16.42
2019-05-30T21:55:32.678Z,16.43
2019-05-30T21:58:01.094Z,16.40
2019-05-30T22:00:48.570Z,16.40
2019-05-30T22:03:17.311Z,16.41
2019-05-30T22:05:47.930Z,16.41
2019-05-30T22:08:15.898Z,16.42
2019-05-30T22:10:45.396Z,16.40
2019-05-30T22:13:13.927Z,16.38
2019-05-30T22:15:43.652Z,16.39
2019-05-30T22:18:12.123Z,16.40
2019-05-30T22:20:41.722Z,16.39
2019-05-30T22:23:11.099Z,16.37
2019-05-30T22:25:39.679Z,16.36
2019-05-30T22:28:08.091Z,16.33
2019-05-30T22:30:36.591Z,16.31
2019-05-30T22:33:05.091Z,16.29
2019-05-30T22:35:33.530Z,16.25
2019-05-30T22:38:01.948Z,16.21
2019-05-30T22:40:30.390Z,16.15
2019-05-30T22:42:58.798Z,16.12
2019-05-30T22:45:27.239Z,16.10
2019-05-30T22:47:56.779Z,16.07
2019-05-30T22:50:25.365Z,16.06
2019-05-30T22:52:57.205Z,16.06
2019-05-30T22:55:25.636Z,16.06
2019-05-30T22:57:54.080Z,16.06
2019-05-30T23:00:22.563Z,16.06
2019-05-30T23:02:51.938Z,16.05
2019-05-30T23:05:20.567Z,16.02
2019-05-30T23:07:49.418Z,16.03
2019-05-30T23:10:18.037Z,16.03
2019-05-30T23:12:47.640Z,16.03
2019-05-30T23:15:16.339Z,16.02
2019-05-30T23:17:44.779Z,16.01
2019-05-30T23:20:13.261Z,16.00
2019-05-30T23:22:41.699Z,15.97
2019-05-30T23:25:10.462Z,15.98
2019-05-30T23:27:38.897Z,15.99
2019-05-30T23:30:07.750Z,15.96
2019-05-30T23:32:36.189Z,15.94
2019-05-30T23:35:05.341Z,15.89
2019-05-30T23:37:33.844Z,15.86
2019-05-30T23:40:02.328Z,15.81
2019-05-30T23:42:30.764Z,15.77
2019-05-30T23:44:59.611Z,15.74
2019-05-30T23:47:28.282Z,15.69
2019-05-30T23:49:58.095Z,15.66
2019-05-30T23:52:26.674Z,15.66
2019-05-30T23:54:56.226Z,15.65
2019-05-30T23:57:24.906Z,15.59
2019-05-30T23:59:54.643Z,15.54
